x

Portage Canal, Mi (pclm4) Weather Station

3:40am - Mon 4th May 2015 All times are CDT. -5 hours from GMT.

  • Wind
    2mph, 3mph gusts
  • Air Temp 45°f
  • Sea Pressure 1014.6mb
  • Portage Canal, Mi
  • Portage Canal, Mi

More Historic Weather Station data

Upgrade to MSW Pro to gain access to the past 30 days of data for over 8000 Wavebouys and Weather Stations around the globe.

Join Pro

Comparision Forecast

View Surf forecast
   
Mon 05/04 3:40am 2 3 mph 1014.6mb 45f
3:30am 2 5 mph 1014.6mb 45f
3:20am  -  7 mph 1014.2mb 46f
3:10am 5 8 mph 1014.2mb 47f
3:00am 5 7 mph 1014.2mb 47f
2:40am 3 7 mph 1013.9mb 47f
2:30am 3 6 mph 1013.5mb 48f
2:20am 2 6 mph 1013.2mb 48f
2:10am 3 6 mph 1013.2mb 49f
2:00am 3 6 mph 1013.2mb 49f
1:40am 1 5 mph 1013.2mb 50f
1:30am 2 6 mph 1013.2mb 51f
1:20am 6 8 mph 1013.2mb 51f
1:10am 2 6 mph 1012.9mb 52f
1:00am 5 7 mph 1013.2mb 53f
12:40am 8 11 mph 1012.9mb 53f
12:30am 6 11 mph 1012.9mb 53f
12:20am 8 13 mph 1012.9mb 53f
12:10am 6 13 mph 1012.9mb 52f
12:00am 6 9 mph 1012.9mb 50f
Sun 05/03 11:40pm 3 7 mph 1012.5mb 53f
11:30pm 3 9 mph 1012.5mb 53f
11:20pm 8 13 mph 1012.2mb 53f
11:10pm 6 11 mph 1012.2mb 54f
11:00pm 7 10 mph 1011.9mb 54f
10:40pm 7 14 mph 1011.9mb 55f
10:30pm 5 6 mph 1011.9mb 50f
10:20pm  -  3 mph 1011.2mb 55f
10:10pm 2
mph
1011.2mb 56f
10:00pm 1 2 mph 1011.2mb 56f
9:40pm 3 5 mph 1010.8mb 57f
9:30pm 2 3 mph 1010.8mb 58f
9:20pm 1 5 mph 1010.8mb 58f
9:10pm 2 5 mph 1010.8mb 58f
9:00pm  -  6 mph 1010.8mb 58f
8:40pm 2 3 mph 1010.5mb 57f
8:30pm 3 7 mph 1010.8mb 58f
8:20pm  -  6 mph 1010.8mb 57f
8:10pm 3 6 mph 1010.8mb 56f
8:00pm 5 6 mph 1010.5mb 58f
7:40pm  -  13 mph 1009.8mb 59f
7:30pm 5 11 mph 1009.8mb 58f
7:20pm 5 6 mph 1009.8mb 58f
7:10pm  -  3 mph 1009.8mb 62f
7:00pm 2 5 mph 1009.5mb 61f
6:40pm 3 6 mph 1009.5mb 61f
6:30pm 5
mph
1009.5mb 60f
6:20pm 2 5 mph 1009.5mb 62f
6:10pm 3 6 mph 1009.5mb 61f
6:00pm 3 5 mph 1009.5mb 59f
5:40pm 3 6 mph 1008.8mb 63f
5:30pm 2 6 mph 1008.8mb 64f
5:20pm 3 5 mph 1008.5mb 65f
5:10pm 3 5 mph 1008.5mb 65f
5:00pm 3 7 mph 1008.5mb 67f
4:40pm 3 7 mph 1008.5mb 67f
4:30pm 3 7 mph 1008.5mb 66f
4:20pm 6 8 mph 1008.1mb 66f
4:10pm 6 8 mph 1008.1mb 65f
4:00pm 5 9 mph 1008.1mb 67f
3:40pm 6 10 mph 1008.1mb 68f
3:30pm 7 11 mph 1008.1mb 67f
3:20pm 5 9 mph 1007.8mb 68f
3:10pm 3 9 mph 1007.8mb 68f
3:00pm 6 8 mph 1008.1mb 67f
2:40pm 5 8 mph 1008.1mb 68f
2:30pm 6 10 mph 1008.1mb 67f
2:20pm 7 11 mph 1008.1mb 64f
2:10pm 6 10 mph 1008.5mb 64f
2:00pm 6 10 mph 1008.5mb 63f
1:40pm 7 10 mph 1008.1mb 68f
1:30pm 6 10 mph 1008.1mb 63f
1:20pm 5 9 mph 1008.1mb 61f
1:10pm 6 9 mph 1008.1mb 61f
1:00pm 6 10 mph 1008.1mb 60f
12:40pm 6 11 mph 1007.8mb 61f
12:30pm 7 11 mph 1007.8mb 63f
12:20pm 8 13 mph 1007.8mb 62f
12:10pm 7 11 mph 1008.1mb 63f
12:00pm 8 14 mph 1008.1mb 63f
11:40am 6 10 mph 1008.1mb 62f
11:30am 5 11 mph 1007.8mb 62f
11:20am 7 11 mph 1007.8mb 70f
11:10am 7 13 mph 1007.8mb 69f
11:00am 6 14 mph 1007.8mb 69f
10:40am 6 15 mph 1007.8mb 66f
10:30am 8 13 mph 1007.8mb 66f
10:20am 7 13 mph 1007.8mb 66f
10:10am 8 11 mph 1007.5mb 66f
10:00am 6 13 mph 1007.1mb 65f
9:40am 6 9 mph 1007.5mb 65f
9:30am 5 9 mph 1007.5mb 64f
9:20am 6 10 mph 1008.1mb 62f
9:10am 6 9 mph 1008.1mb 60f
9:00am 5 13 mph 1008.1mb 59f
8:40am 6 13 mph 1008.8mb 59f
8:30am 5 10 mph 1008.8mb 59f
8:20am 6 14 mph 1008.8mb 58f
8:10am 11 18 mph 1008.8mb -
8:00am 8 16 mph 1008.8mb -
7:40am 9 16 mph 1008.1mb 65f
7:30am 9 14 mph 1007.8mb 65f
7:20am 7 13 mph 1007.5mb 60f
7:10am 5 9 mph 1007.5mb 60f
7:00am 7 15 mph 1007.5mb 66f
6:40am 6 11 mph 1007.5mb 65f
6:30am 7 14 mph 1007.1mb 65f
6:20am 8 13 mph 1007.1mb 65f
6:10am 9 15 mph 1007.1mb 64f
6:00am 8 13 mph 1006.8mb 64f
5:40am 7 11 mph 1006.8mb 64f
5:30am 7 11 mph 1006.8mb 64f
5:20am 6 13 mph 1006.8mb 64f
5:10am 5 11 mph 1006.4mb 64f
5:00am 7 13 mph 1006.8mb 64f
4:50am 7 11 mph 1006.8mb 65f
4:40am 5 13 mph 1006.8mb 64f
4:30am 7 14 mph 1006.8mb 65f
4:20am 7 10 mph 1006.8mb 64f
4:10am 6 13 mph 1006.8mb 64f
4:00am 6 10 mph 1006.8mb 64f
3:50am 7 13 mph 1006.8mb 64f
3:40am 7 14 mph 1006.8mb 64f
3:30am 7 14 mph 1006.8mb 64f
3:20am 7 10 mph 1006.8mb 64f
3:10am 6 13 mph 1006.8mb 64f
3:00am 6 14 mph 1006.8mb 64f
2:50am 7 13 mph 1007.1mb 64f
2:40am 6 11 mph 1007.1mb 65f
2:30am 8 16 mph 1007.1mb 64f
2:20am 8 13 mph 1007.1mb 64f
2:10am 9 14 mph 1007.5mb 64f
2:00am 7 15 mph 1007.5mb 64f
1:50am 11 18 mph 1007.5mb 65f
1:40am 9 14 mph 1007.5mb 65f
1:30am 10 18 mph 1007.5mb 65f
1:20am 8 16 mph 1007.5mb 64f
1:10am 7 14 mph 1007.5mb 64f
1:00am 7 14 mph 1007.5mb 63f
12:50am 8 18 mph 1007.8mb 63f
12:40am 7 14 mph 1007.8mb 62f
12:30am 8 15 mph 1007.8mb 63f
12:20am 10 16 mph 1008.1mb 63f
12:10am 9 16 mph 1008.1mb 63f
12:00am 7 15 mph 1008.1mb 63f
Sat 05/02 11:40pm 9 15 mph 1008.5mb 63f
11:30pm 7 15 mph 1008.5mb 62f
11:20pm 9 17 mph 1008.5mb 62f
11:10pm 7 15 mph 1008.5mb 62f
11:00pm 8 16 mph 1008.8mb 62f
10:50pm 7 16 mph 1008.8mb 62f
10:40pm 8 18 mph 1008.8mb 62f
10:30pm 8 17 mph 1008.8mb 61f
10:20pm 10 18 mph 1008.8mb 60f
10:10pm 8 20 mph 1008.8mb 60f
10:00pm 9 16 mph 1008.8mb 60f
9:50pm 7 20 mph 1008.8mb 60f
9:40pm 8 17 mph 1008.8mb 59f
9:30pm 9 17 mph 1008.8mb 59f
9:20pm 9 18 mph 1008.8mb 59f
9:10pm 8 18 mph 1008.8mb 59f
9:00pm 8 20 mph 1008.8mb 58f
8:50pm 9 17 mph 1008.8mb 58f
8:40pm 8 16 mph 1008.8mb 58f
8:30pm 8 18 mph 1008.8mb 58f
8:20pm 9 17 mph 1009.1mb 58f
8:10pm 9 15 mph 1009.1mb 58f
8:00pm 9 16 mph 1009.1mb 58f
7:50pm 8 14 mph 1009.1mb 58f
7:40pm 7 17 mph 1009.5mb 59f
7:30pm 9 17 mph 1009.5mb 60f
7:20pm 8 17 mph 1009.5mb 61f
7:10pm 7 15 mph 1009.5mb 62f
7:00pm 7 16 mph 1009.5mb 63f
6:50pm 7 15 mph 1009.8mb 64f
6:40pm 8 15 mph 1009.8mb 65f
6:30pm 6 11 mph 1009.8mb 66f
6:20pm 5 10 mph 1010.2mb -
6:10pm 6 10 mph 1010.2mb -
6:00pm 3 5 mph 1010.2mb 59f
5:50pm 3 5 mph 1010.5mb 58f
5:40pm 3 6 mph 1010.5mb 57f
5:30pm 6 7 mph 1010.5mb 54f
5:20pm 5 6 mph 1010.8mb 55f
5:10pm 6
mph
1010.8mb 55f
5:00pm 6 7 mph 1011.2mb 53f
4:50pm 7 8 mph 1011.2mb 52f
4:40pm 7 9 mph 1011.2mb 55f
4:30pm 6 8 mph 1011.5mb 55f
4:20pm 7 8 mph 1011.2mb 55f
4:10pm 5 8 mph 1011.5mb 55f
4:00pm 7 8 mph 1011.5mb 55f
3:50pm 7 8 mph 1011.5mb 55f
3:40pm 7 8 mph 1011.5mb 54f
3:30pm 7 8 mph 1011.5mb 53f
3:20pm 7 8 mph 1011.9mb 54f
3:10pm 8
mph
1011.9mb 55f
3:00pm 6 7 mph 1011.9mb 56f
2:50pm 5 6 mph 1012.2mb 59f
2:40pm 2 3 mph 1012.2mb 60f
2:30pm 3
mph
1012.2mb 60f
2:20pm 2 3 mph 1012.2mb 60f
2:10pm 2 3 mph 1012.5mb 60f
2:00pm 2 3 mph 1012.9mb 57f
1:50pm 2 3 mph 1012.5mb 57f
1:40pm 1 2 mph 1012.9mb 57f
1:30pm  -  2 mph 1012.9mb 55f
1:20pm 1 5 mph 1012.9mb 55f
1:10pm 3 5 mph 1013.2mb 56f
1:00pm 2 3 mph 1012.9mb 56f
12:50pm 2 5 mph 1013.2mb 56f
12:40pm 3 6 mph 1012.9mb 57f
12:30pm 3 5 mph 1013.2mb 57f
12:20pm 3 6 mph 1013.2mb 56f
12:10pm 3 6 mph 1013.2mb 57f
12:00pm 3 6 mph 1013.5mb 58f
11:50am 2 5 mph 1013.5mb 57f
11:40am 3 5 mph 1013.5mb 58f
11:30am 2 5 mph 1013.5mb 58f
11:20am 3 6 mph 1013.5mb 59f
11:10am 3 6 mph 1013.5mb 58f
11:00am 3 6 mph 1013.9mb 58f
10:50am 5 6 mph 1013.5mb 59f
10:40am 3 6 mph 1013.5mb 58f
10:30am 3 7 mph 1013.9mb 58f
10:20am 5 7 mph 1013.9mb 58f
10:10am 3 6 mph 1013.9mb 59f
10:00am 3 7 mph 1013.9mb 60f
9:50am 3 5 mph 1013.9mb 60f
9:40am 2 5 mph 1013.9mb 60f
9:30am 2 5 mph 1013.9mb 60f
9:20am 3 6 mph 1014.2mb 58f
9:10am 5 6 mph 1014.2mb 58f
9:00am 5 6 mph 1014.2mb 58f
8:50am 3 6 mph 1014.2mb 58f
8:40am 3 5 mph 1014.2mb 57f
8:30am 3 7 mph 1014.6mb 57f
8:20am 3 7 mph 1014.6mb 56f
8:10am 2 6 mph 1014.6mb 55f
8:00am 2 6 mph 1014.6mb 53f
7:50am 2 6 mph 1014.6mb 55f
7:40am  -  3 mph 1014.6mb 53f
7:30am 2 6 mph 1014.6mb 53f
7:20am 2 6 mph 1014.6mb 50f
7:10am 2 5 mph 1014.6mb 47f
7:00am 2 5 mph 1014.6mb 47f
6:50am 3 6 mph 1014.6mb 53f
6:40am 3 7 mph 1014.6mb 52f
6:30am 3 6 mph 1014.6mb 51f
6:20am 3 7 mph 1014.6mb 51f
6:10am 5 7 mph 1014.6mb 51f
6:00am 3 7 mph 1014.6mb 50f
5:50am 5 8 mph 1014.6mb 50f
5:40am 3 6 mph 1014.6mb 50f
5:30am 3 7 mph 1014.6mb 50f
5:20am 3 6 mph 1014.6mb 50f
5:10am 3 6 mph 1014.6mb 51f
5:00am 3 6 mph 1014.6mb 51f
4:50am 5 7 mph 1014.6mb 51f
4:40am 3 7 mph 1014.6mb 52f
4:30am 3 6 mph 1014.6mb 52f
4:20am 5 8 mph 1014.6mb 52f
4:10am 3 7 mph 1014.6mb 53f
4:00am 3 7 mph 1014.6mb 53f
3:50am 3 6 mph 1014.6mb 53f
3:40am 2 6 mph 1014.9mb 52f
3:30am 1 3 mph 1014.9mb 48f
3:20am  -  3 mph 1014.9mb 50f
3:10am 2 5 mph 1014.9mb 51f
3:00am 2 6 mph 1014.9mb 49f
2:50am 2 3 mph 1015.2mb 48f
2:40am  -  2 mph 1015.2mb 47f
2:30am  -  3 mph 1015.2mb 48f
2:20am  -  5 mph 1015.2mb 51f
2:10am 2 6 mph 1015.2mb 52f
2:00am 2 5 mph 1015.2mb 47f
1:50am  -  6 mph 1015.6mb 46f
1:40am 3 8 mph 1015.6mb 46f
1:30am 3 6 mph 1015.6mb 52f
1:20am 3 6 mph 1015.6mb 51f
1:10am 2 3 mph 1015.2mb 51f
1:00am  -  5 mph 1015.2mb 51f
12:50am 5 6 mph 1015.2mb 51f
12:40am 3 6 mph 1015.2mb 50f
12:30am  -  1 mph 1015.6mb 49f
12:20am  -  2 mph 1015.2mb 50f
12:10am  -  1 mph 1015.2mb 51f
12:00am  -  mph 1015.2mb 51f
Fri 05/01 11:50pm  -  mph 1015.2mb 51f
11:40pm  -  1 mph 1015.2mb 51f
11:30pm  -  mph 1015.2mb 52f
11:20pm  -  mph 1015.2mb 52f
11:10pm  -  mph 1015.2mb 52f
11:00pm  -  mph 1015.2mb 52f
10:50pm  -  mph 1015.2mb 49f
10:40pm  -  mph 1015.2mb 51f
10:30pm  -  mph 1015.2mb 51f
10:20pm  -  1 mph 1015.2mb 50f
10:10pm  -  mph 1015.2mb 49f
10:00pm  -  mph 1015.2mb 51f
9:50pm  -  mph 1015.2mb 49f
9:40pm  -  2 mph 1015.2mb 46f
9:30pm  -  5 mph 1015.2mb 48f
9:20pm  -  2 mph 1015.2mb 50f
9:10pm  -  1 mph 1015.6mb 49f
9:00pm 1 2 mph 1015.6mb 48f
8:50pm  -  2 mph 1015.6mb 51f
8:40pm  -  5 mph 1015.6mb 47f
8:30pm 2 6 mph 1015.6mb 53f
8:20pm  -  2 mph 1015.6mb 51f
8:10pm  -  mph 1015.6mb 52f
8:00pm  -  3 mph 1015.6mb 52f
7:50pm 1 3 mph 1015.6mb 49f
7:40pm  -  mph 1015.6mb 50f
7:30pm  -  mph 1015.6mb 55f
7:20pm  -  mph 1015.6mb 52f
7:10pm  -  1 mph 1015.6mb 56f
7:00pm 1 2 mph 1015.6mb 56f
6:50pm  -  mph 1015.6mb 56f
6:40pm  -  3 mph 1015.6mb 56f
6:30pm  -  3 mph 1015.9mb 55f
6:20pm 3
mph
1015.9mb 55f
6:10pm 2 3 mph 1015.9mb 56f
6:00pm  -  2 mph 1015.9mb 56f
5:50pm  -  1 mph 1016.3mb 56f
5:40pm  -  5 mph 1016.3mb 57f
5:30pm  -  6 mph 1015.9mb 60f
5:20pm 3 5 mph 1015.9mb 59f
5:10pm  -  3 mph 1016.3mb 58f
5:00pm  -  6 mph 1016.3mb 57f
4:50pm 2 5 mph 1016.6mb 57f
4:40pm 1 2 mph 1016.6mb 55f
4:30pm  -  mph 1016.6mb 56f
4:20pm  -  3 mph 1016.3mb 57f
4:10pm  -  6 mph 1016.6mb 57f
4:00pm 2 7 mph 1016.6mb 57f
3:50pm 7 8 mph 1016.9mb 59f
3:40pm  -  7 mph 1016.6mb 57f
3:30pm 2 6 mph 1016.6mb 58f
3:20pm 5 7 mph 1016.9mb 57f
3:10pm 2 3 mph 1016.6mb 60f
3:00pm 1 3 mph 1016.9mb 60f
2:50pm 1 3 mph 1016.9mb 61f
2:40pm 2
mph
1016.9mb 60f
2:30pm 2
mph
1017.3mb 60f
2:20pm 2 3 mph 1017.6mb 60f
2:10pm  -  2 mph 1017.6mb 59f
2:00pm 1 3 mph 1017.6mb 59f
1:50pm 1 3 mph 1017.6mb 58f
1:40pm 3 6 mph 1017.6mb 59f
1:30pm 3 7 mph 1017.6mb 58f
1:20pm 5 9 mph 1017.6mb 58f
1:10pm 5 9 mph 1017.6mb 57f
1:00pm 5 8 mph 1017.9mb 58f
12:50pm 3 7 mph 1017.9mb 57f
12:40pm 2 7 mph 1017.9mb 56f
12:30pm 3 6 mph 1018.3mb 55f
12:20pm 3 7 mph 1018.3mb 54f
12:10pm 2 5 mph 1018.3mb 52f
12:00pm 2 5 mph 1018.3mb 52f
11:50am 3 5 mph 1018.3mb 53f
11:40am 3 6 mph 1018.6mb 52f
11:30am 2 6 mph 1018.6mb 52f
11:20am 3 6 mph 1019mb 53f
11:10am 3 6 mph 1019mb 51f
11:00am 3 6 mph 1019mb 51f
10:50am 3 7 mph 1019mb 50f
10:40am 3 7 mph 1019.3mb 50f
10:30am 5 7 mph 1019mb 51f
10:20am 5 9 mph 1019mb 51f
10:10am 6 8 mph 1019mb 52f
10:00am 3 7 mph 1019mb 52f
9:50am 3 7 mph 1019mb 51f
9:40am 3 7 mph 1019.3mb 51f
9:30am 3 6 mph 1019.3mb 52f
9:20am 3 6 mph 1019.3mb 51f
9:10am 2 3 mph 1019.3mb 51f
9:00am  -  1 mph 1019.6mb 52f
8:50am  -  2 mph 1019.3mb 52f
8:40am  -  3 mph 1019.6mb 49f
8:30am 2 5 mph 1019.6mb 47f
8:20am  -  5 mph 1019.6mb 47f
8:10am 3 6 mph 1019.6mb 47f
8:00am 3 5 mph 1019.6mb 48f
7:50am 3 6 mph 1019.6mb 47f
7:40am 2 6 mph 1019.6mb 46f
7:30am 3 6 mph 1019.6mb 45f
7:20am 3 7 mph 1019.6mb 46f
7:10am 1 7 mph 1019.3mb 49f
7:00am 2 9 mph 1019.3mb 47f
6:50am 3 10 mph 1019mb 46f
6:40am 5 9 mph 1019mb 45f
6:30am 3 8 mph 1019mb 45f
6:20am 3 7 mph 1019mb 46f
6:10am 3 7 mph 1018.6mb 45f
6:00am 3 5 mph 1018.6mb 44f
5:50am 3 7 mph 1018.3mb 43f
5:40am 1 7 mph 1018.3mb 42f
5:30am 2 9 mph 1018.6mb 41f
5:20am 2 5 mph 1018.6mb 35f
5:10am  -  3 mph 1019mb 35f
5:00am 3
mph
1019mb 35f
4:50am  -  1 mph 1018.6mb 35f
4:40am  -  2 mph 1019mb 35f
4:30am  -  mph 1019mb 35f
4:20am  -  1 mph 1019mb 35f
4:10am  -  2 mph 1019mb 34f
4:00am 1 2 mph 1019mb 34f
3:50am 1 2 mph 1019mb 34f
3:40am  -  1 mph 1019mb 34f
3:30am  -  1 mph 1018.6mb 34f
3:20am  -  mph 1018.6mb 34f
3:10am  -  mph 1018.6mb 34f
3:00am  -  mph 1019mb 34f
2:50am  -  2 mph 1019mb 34f
2:40am  -  mph 1019mb 33f
2:30am  -  mph 1019mb 33f
2:20am  -  mph 1019mb 34f
2:10am  -  mph 1019mb 34f
2:00am  -  mph 1019.3mb 34f
1:50am  -  mph 1019.3mb 33f
1:40am  -  2 mph 1019.6mb 32f
1:30am 1 2 mph 1019.6mb 33f
1:20am  -  2 mph 1019.6mb 33f
1:10am  -  mph 1019.6mb 33f
1:00am  -  mph 1019.3mb 34f
12:50am  -  mph 1019.6mb 34f
12:40am  -  3 mph 1019.6mb 34f
12:30am 2
mph
1019.6mb 34f
12:20am  -  1 mph 1019.6mb 33f
12:10am  -  3 mph 1019.6mb 34f
12:00am  -  mph 1019.6mb 34f
Thu 04/30 11:50pm  -  mph 1020mb 34f
11:40pm  -  mph 1020mb 34f
11:30pm  -  mph 1020mb 33f
11:20pm  -  mph 1020mb 33f
11:10pm  -  mph 1020mb 33f
11:00pm  -  mph 1020mb 34f
10:50pm  -  mph 1020mb 34f
10:40pm  -  mph 1020mb 34f
10:30pm  -  mph 1020mb 34f
10:20pm  -  mph 1020.3mb 34f
10:10pm  -  mph 1020.3mb 34f
10:00pm  -  mph 1020.3mb 34f
9:50pm  -  mph 1020mb 34f
9:40pm  -  mph 1020mb 35f
9:30pm  -  mph 1019.6mb 35f
9:20pm  -  mph 1019.6mb 35f
9:10pm  -  mph 1019.6mb 35f
9:00pm  -  mph 1020mb 36f
8:50pm  -  mph 1020mb 36f
8:40pm  -  mph 1020mb 36f
8:30pm  -  mph 1020mb 36f
8:20pm  -  mph 1020mb 36f
8:10pm  -  mph 1020mb 37f
8:00pm  -  mph 1020mb 37f
7:50pm  -  3 mph 1020mb 37f
7:40pm 2 5 mph 1020mb 38f
7:30pm 3 7 mph 1020mb 39f
7:20pm 3 7 mph 1020.3mb 40f
7:10pm 3 6 mph 1020mb 41f
7:00pm 3 6 mph 1020mb 41f
6:50pm 2 3 mph 1020mb 41f
5:40pm 2 5 mph 1020mb 45f
5:30pm 1 3 mph 1020.3mb 44f
5:20pm 2 5 mph 1020.3mb 45f
5:10pm 3 5 mph 1020.3mb 46f
5:00pm 3 6 mph 1020.3mb 45f
4:50pm 5 6 mph 1020.3mb 45f
4:40pm 3 5 mph 1020.3mb 46f
4:30pm 3 5 mph 1020.3mb 44f
4:20pm 2 5 mph 1020.3mb 42f
4:10pm 3 5 mph 1020.7mb 43f
4:00pm 3 6 mph 1020.7mb 42f
3:50pm 5 8 mph 1020.7mb 43f
3:40pm 6 9 mph 1020.7mb 43f
3:30pm 8 9 mph 1020.7mb 42f
3:20pm 8 10 mph 1020.7mb 42f
3:10pm 9 10 mph 1020.7mb 41f
3:00pm 7 9 mph 1020.7mb 44f
2:50pm 8 10 mph 1020.7mb 43f
2:40pm 9 10 mph 1020.7mb 43f
2:30pm 9 11 mph 1020.7mb 43f
2:20pm 9 13 mph 1020.7mb 42f
2:10pm 9 11 mph 1021mb 42f
2:00pm 9 13 mph 1021mb 43f
1:50pm 9 13 mph 1021mb 42f
1:40pm 8 13 mph 1021mb 42f
1:30pm 11 13 mph 1021mb 42f
1:20pm 10 14 mph 1021mb 42f
1:10pm 11 14 mph 1021mb 42f
1:00pm 13 15 mph 1021mb 42f
12:50pm 13 14 mph 1020.7mb 42f
12:40pm 11 14 mph 1020.7mb 41f
12:30pm 13 15 mph 1020.7mb 41f
12:20pm 11 14 mph 1020.7mb 42f
12:10pm 11 14 mph 1021mb 41f
12:00pm 10 14 mph 1021mb 41f
11:50am 9 15 mph 1021mb 40f
11:40am 7 11 mph 1021mb 40f
11:30am 10 14 mph 1021mb 40f
11:20am 11 14 mph 1021mb 39f
11:10am 9 11 mph 1021mb 40f
11:00am 7 9 mph 1021mb 39f
10:50am 8 10 mph 1021mb 40f
10:40am 7 10 mph 1021mb 40f
10:30am 8 9 mph 1021mb 39f
10:20am 7 11 mph 1021mb 39f
10:10am 8 11 mph 1021mb 38f